createdAt,value
2022-07-25T00:01:52.410Z,13.82
2022-07-25T00:04:20.804Z,13.81
2022-07-25T00:06:49.551Z,13.83
2022-07-25T00:09:16.900Z,13.78
2022-07-25T00:11:44.317Z,13.75
2022-07-25T00:14:11.529Z,13.76
2022-07-25T00:16:40.095Z,13.78
2022-07-25T00:19:07.381Z,13.75
2022-07-25T00:21:34.554Z,13.77
2022-07-25T00:24:02.498Z,13.74
2022-07-25T00:26:29.811Z,13.64
2022-07-25T00:28:56.953Z,13.63
2022-07-25T00:31:24.572Z,13.56
2022-07-25T00:33:51.996Z,13.64
2022-07-25T00:36:19.341Z,13.67
2022-07-25T00:38:46.870Z,13.60
2022-07-25T00:41:14.125Z,13.55
2022-07-25T00:43:45.439Z,13.53
2022-07-25T00:46:18.962Z,13.39
2022-07-25T00:48:46.704Z,13.40
2022-07-25T00:51:16.340Z,13.30
2022-07-25T00:53:44.324Z,13.29
2022-07-25T00:56:11.900Z,13.28
2022-07-25T00:58:39.418Z,13.28
2022-07-25T01:01:06.630Z,13.29
2022-07-25T01:03:33.972Z,13.28
2022-07-25T01:06:01.358Z,13.26
2022-07-25T01:08:28.787Z,13.26
2022-07-25T01:10:56.038Z,13.20
2022-07-25T01:13:23.590Z,13.19
2022-07-25T01:15:50.692Z,13.17
2022-07-25T01:18:18.075Z,13.15
2022-07-25T01:20:45.550Z,13.14
2022-07-25T01:23:12.781Z,13.06
2022-07-25T01:25:40.006Z,13.05
2022-07-25T01:28:07.569Z,13.05
2022-07-25T01:30:34.805Z,13.00
2022-07-25T01:33:06.549Z,12.94
2022-07-25T01:35:37.930Z,12.93
2022-07-25T01:38:07.425Z,12.91
2022-07-25T01:40:34.720Z,12.87
2022-07-25T01:43:02.201Z,12.87
2022-07-25T01:45:29.511Z,12.82
2022-07-25T01:47:56.900Z,12.79
2022-07-25T01:50:24.535Z,12.76
2022-07-25T01:52:51.890Z,12.70
2022-07-25T01:55:19.156Z,12.65
2022-07-25T01:57:50.056Z,12.69
2022-07-25T02:00:18.112Z,12.72
2022-07-25T02:02:45.686Z,12.67
2022-07-25T02:05:14.831Z,12.65
2022-07-25T02:07:42.401Z,12.60
2022-07-25T02:10:09.809Z,12.56
2022-07-25T02:12:37.461Z,12.51
2022-07-25T02:15:05.140Z,12.56
2022-07-25T02:17:32.436Z,12.56
2022-07-25T02:19:59.865Z,12.56
2022-07-25T02:22:27.148Z,12.55
2022-07-25T02:24:54.335Z,12.51
2022-07-25T02:27:21.811Z,12.51
2022-07-25T02:29:49.050Z,12.49
2022-07-25T02:32:16.236Z,12.46
2022-07-25T02:34:43.812Z,12.40
2022-07-25T02:37:13.042Z,12.39
2022-07-25T02:39:40.489Z,12.39
2022-07-25T02:42:07.964Z,12.35
2022-07-25T02:44:35.093Z,12.32
2022-07-25T02:47:02.442Z,12.33
2022-07-25T02:49:29.914Z,12.34
2022-07-25T02:51:57.685Z,12.36
2022-07-25T02:54:25.135Z,12.32
2022-07-25T02:56:52.553Z,12.26
2022-07-25T02:59:19.884Z,12.36
2022-07-25T03:01:47.157Z,12.36
2022-07-25T03:04:15.230Z,12.37
2022-07-25T03:06:44.678Z,12.36
2022-07-25T03:09:11.811Z,12.33
2022-07-25T03:11:39.220Z,12.33
2022-07-25T03:14:08.766Z,12.36
2022-07-25T03:16:36.730Z,12.30
2022-07-25T03:19:04.343Z,12.32
2022-07-25T03:21:31.566Z,12.28
2022-07-25T03:23:58.747Z,12.38
2022-07-25T03:26:26.208Z,12.31
2022-07-25T03:28:53.714Z,12.36
2022-07-25T03:31:21.321Z,12.40
2022-07-25T03:33:48.793Z,12.43
2022-07-25T03:36:16.006Z,12.48
2022-07-25T03:38:43.246Z,12.48
2022-07-25T03:41:10.739Z,12.61
2022-07-25T03:43:38.000Z,12.66
2022-07-25T03:46:05.217Z,12.70
2022-07-25T03:48:32.796Z,12.75
2022-07-25T03:51:04.866Z,12.83
2022-07-25T03:53:54.534Z,12.92
2022-07-25T03:56:21.721Z,13.03
2022-07-25T03:58:49.109Z,13.10
2022-07-25T04:01:16.296Z,13.19
2022-07-25T04:03:43.934Z,13.26
2022-07-25T04:06:12.004Z,13.35
2022-07-25T04:08:39.509Z,13.48
2022-07-25T04:11:06.831Z,13.57
2022-07-25T04:13:34.250Z,13.67
2022-07-25T04:16:01.495Z,13.76
2022-07-25T04:18:31.415Z,13.89
2022-07-25T04:21:02.536Z,14.01
2022-07-25T04:23:30.081Z,14.14
2022-07-25T04:25:58.014Z,14.29
2022-07-25T04:28:25.729Z,14.45
2022-07-25T04:30:53.079Z,14.56
2022-07-25T04:33:21.087Z,14.76
2022-07-25T04:35:48.943Z,14.92
2022-07-25T04:38:16.219Z,15.11
2022-07-25T04:40:43.677Z,15.29
2022-07-25T04:43:11.149Z,15.44
2022-07-25T04:45:39.394Z,15.59
2022-07-25T04:48:06.993Z,15.78
2022-07-25T04:50:34.390Z,15.93
2022-07-25T04:53:01.564Z,16.10
2022-07-25T04:55:28.882Z,16.30
2022-07-25T04:57:56.407Z,16.48
2022-07-25T05:00:23.952Z,16.68
2022-07-25T05:02:51.804Z,16.85
2022-07-25T05:05:20.879Z,17.09
2022-07-25T05:07:49.527Z,17.23
2022-07-25T05:10:16.806Z,17.48
2022-07-25T05:12:44.225Z,17.80
2022-07-25T05:15:11.810Z,18.09
2022-07-25T05:17:39.049Z,18.38
2022-07-25T05:20:07.140Z,18.93
2022-07-25T05:22:34.474Z,19.31
2022-07-25T05:25:02.473Z,19.64
2022-07-25T05:27:29.803Z,20.14
2022-07-25T05:29:57.154Z,20.39
2022-07-25T05:32:24.331Z,20.61
2022-07-25T05:34:52.325Z,20.94
2022-07-25T05:37:19.883Z,21.34
2022-07-25T05:39:47.124Z,21.60
2022-07-25T05:42:14.723Z,21.98
2022-07-25T05:44:41.932Z,22.14
2022-07-25T05:47:13.014Z,22.22
2022-07-25T05:49:40.731Z,22.02
2022-07-25T05:52:12.581Z,22.25
2022-07-25T05:54:40.543Z,22.85
2022-07-25T05:57:07.920Z,22.74
2022-07-25T05:59:35.227Z,22.53
2022-07-25T06:02:02.700Z,23.04
2022-07-25T06:04:30.231Z,23.13
2022-07-25T06:06:57.649Z,23.71
2022-07-25T06:09:24.922Z,24.10
2022-07-25T06:12:00.413Z,24.27
2022-07-25T06:14:29.286Z,23.78
2022-07-25T06:16:57.328Z,23.80
2022-07-25T06:19:24.573Z,24.11
2022-07-25T06:21:52.122Z,24.12
2022-07-25T06:24:19.474Z,24.24
2022-07-25T06:26:47.001Z,24.36
2022-07-25T06:29:14.162Z,23.72
2022-07-25T06:31:41.907Z,24.05
2022-07-25T06:34:13.539Z,23.87
2022-07-25T06:36:40.638Z,23.84
2022-07-25T06:39:08.336Z,24.35
2022-07-25T06:41:37.971Z,24.59
2022-07-25T06:44:05.765Z,25.05
2022-07-25T06:46:33.601Z,24.95
2022-07-25T06:49:01.140Z,24.69
2022-07-25T06:51:28.361Z,24.19
2022-07-25T06:53:56.715Z,24.45
2022-07-25T06:56:23.953Z,24.07
2022-07-25T06:58:51.129Z,23.64
2022-07-25T07:01:18.591Z,24.16
2022-07-25T07:03:46.014Z,24.32
2022-07-25T07:06:13.387Z,24.21
2022-07-25T07:08:40.712Z,24.80
2022-07-25T07:11:07.895Z,25.13
2022-07-25T07:13:35.420Z,25.26
2022-07-25T07:16:03.721Z,25.48
2022-07-25T07:18:30.879Z,25.74
2022-07-25T07:20:58.100Z,25.73
2022-07-25T07:23:25.685Z,25.55
2022-07-25T07:25:56.374Z,26.01
2022-07-25T07:28:23.734Z,26.17
2022-07-25T07:31:16.160Z,26.34
2022-07-25T07:33:38.373Z,25.92
2022-07-25T07:36:06.317Z,25.93
2022-07-25T07:38:33.680Z,25.87
2022-07-25T07:41:00.961Z,26.02
2022-07-25T07:43:31.706Z,26.05
2022-07-25T07:46:01.484Z,25.98
2022-07-25T07:48:30.410Z,26.25
2022-07-25T07:50:58.375Z,26.44
2022-07-25T07:53:44.663Z,25.71
2022-07-25T07:56:12.371Z,26.08
2022-07-25T07:58:39.865Z,26.16
2022-07-25T08:01:07.100Z,26.17
2022-07-25T08:03:34.637Z,25.94
2022-07-25T08:06:01.841Z,25.77
2022-07-25T08:08:31.501Z,25.52
2022-07-25T08:10:59.947Z,25.80
2022-07-25T08:13:30.439Z,25.32
2022-07-25T08:15:59.671Z,25.06
2022-07-25T08:18:32.750Z,24.70
2022-07-25T08:21:01.843Z,25.24
2022-07-25T08:23:29.428Z,25.35
2022-07-25T08:25:56.639Z,25.53
2022-07-25T08:28:23.778Z,25.78
2022-07-25T08:30:51.538Z,25.88
2022-07-25T08:33:18.748Z,25.91
2022-07-25T08:35:54.667Z,25.43
2022-07-25T08:38:24.131Z,25.22
2022-07-25T08:40:52.328Z,25.09
2022-07-25T08:43:20.046Z,25.46
2022-07-25T08:45:49.952Z,25.69
2022-07-25T08:48:18.983Z,25.27
2022-07-25T08:50:47.204Z,25.56
2022-07-25T08:53:32.544Z,26.08
2022-07-25T08:56:00.669Z,26.10
2022-07-25T08:58:28.127Z,26.01
2022-07-25T09:00:55.282Z,25.99
2022-07-25T09:03:22.514Z,25.99
2022-07-25T09:05:50.099Z,25.98
2022-07-25T09:08:18.137Z,25.95
2022-07-25T09:10:48.363Z,26.23
2022-07-25T09:13:16.603Z,25.97
2022-07-25T09:15:47.061Z,26.21
2022-07-25T09:18:18.318Z,26.05
2022-07-25T09:20:50.237Z,26.14
2022-07-25T09:23:36.573Z,25.63
2022-07-25T09:26:11.147Z,25.61
2022-07-25T09:28:44.047Z,25.92
2022-07-25T09:31:12.872Z,25.59
2022-07-25T09:33:56.396Z,25.69
2022-07-25T09:36:24.296Z,25.92
2022-07-25T09:39:02.170Z,25.92
2022-07-25T09:41:42.351Z,26.09
2022-07-25T09:44:30.355Z,26.19
2022-07-25T09:47:01.100Z,26.10
2022-07-25T09:49:42.589Z,26.02
2022-07-25T09:52:11.112Z,26.18
2022-07-25T09:54:41.194Z,26.25
2022-07-25T09:57:08.445Z,26.16
2022-07-25T09:59:37.041Z,25.96
2022-07-25T10:02:10.045Z,25.89
2022-07-25T10:04:44.988Z,25.80
2022-07-25T10:07:14.856Z,25.66
2022-07-25T10:09:50.271Z,25.63
2022-07-25T10:12:23.078Z,25.53
2022-07-25T10:15:12.995Z,25.44
2022-07-25T10:17:41.540Z,25.64
2022-07-25T10:20:10.327Z,25.74
2022-07-25T10:22:55.217Z,25.64
2022-07-25T10:25:24.168Z,25.63
2022-07-25T10:27:59.983Z,25.67
2022-07-25T10:30:33.601Z,25.90
2022-07-25T10:33:03.837Z,26.07
2022-07-25T10:35:31.586Z,26.12
2022-07-25T10:38:00.179Z,26.19
2022-07-25T10:40:42.162Z,26.06
2022-07-25T10:43:15.355Z,26.02
2022-07-25T10:46:10.475Z,26.07
2022-07-25T10:48:38.245Z,26.07
2022-07-25T10:51:12.817Z,26.10
2022-07-25T10:53:46.044Z,26.11
2022-07-25T10:56:21.120Z,26.08
2022-07-25T10:58:57.044Z,25.99
2022-07-25T11:01:28.435Z,25.63
2022-07-25T11:03:58.826Z,25.64
2022-07-25T11:06:37.450Z,25.86
2022-07-25T11:09:25.089Z,25.84
2022-07-25T11:11:57.373Z,25.80
2022-07-25T11:14:37.521Z,25.66
2022-07-25T11:17:12.365Z,25.68
2022-07-25T11:19:39.925Z,25.83
2022-07-25T11:22:08.428Z,25.92
2022-07-25T11:24:38.339Z,26.01
2022-07-25T11:27:09.853Z,25.85
2022-07-25T11:29:40.451Z,25.78
2022-07-25T11:32:10.830Z,25.79
2022-07-25T11:34:43.165Z,25.80
2022-07-25T11:37:13.320Z,25.84
2022-07-25T11:39:44.845Z,25.70
2022-07-25T11:42:18.086Z,25.61
2022-07-25T11:44:48.328Z,25.59
2022-07-25T11:47:34.726Z,25.70
2022-07-25T11:50:04.365Z,25.89
2022-07-25T11:52:37.190Z,25.83
2022-07-25T11:55:09.539Z,25.84
2022-07-25T11:57:41.917Z,25.86
2022-07-25T12:00:15.533Z,25.92
2022-07-25T12:02:43.369Z,25.94
2022-07-25T12:05:12.861Z,26.06
2022-07-25T12:07:41.585Z,26.17
2022-07-25T12:10:12.414Z,26.25
2022-07-25T12:12:50.225Z,26.55
2022-07-25T12:15:31.683Z,26.55
2022-07-25T12:18:00.079Z,26.43
2022-07-25T12:20:32.583Z,26.55
2022-07-25T12:23:07.431Z,26.57
2022-07-25T12:25:37.095Z,26.43
2022-07-25T12:28:04.753Z,26.41
2022-07-25T12:30:32.761Z,26.53
2022-07-25T12:33:01.351Z,26.63
2022-07-25T12:35:28.781Z,26.67
2022-07-25T12:37:55.985Z,26.70
2022-07-25T12:40:23.865Z,26.61
2022-07-25T12:42:51.557Z,26.71
2022-07-25T12:45:18.701Z,26.72
2022-07-25T12:47:47.477Z,26.72
2022-07-25T12:50:16.090Z,26.74
2022-07-25T12:52:44.310Z,26.74
2022-07-25T12:55:14.915Z,26.68
2022-07-25T12:57:42.356Z,26.72
2022-07-25T13:00:13.297Z,26.79
2022-07-25T13:02:41.258Z,26.70
2022-07-25T13:05:08.831Z,26.72
2022-07-25T13:07:36.614Z,26.83
2022-07-25T13:10:05.450Z,26.84
2022-07-25T13:12:32.772Z,27.00
2022-07-25T13:15:00.105Z,27.00
2022-07-25T13:17:28.123Z,27.05
2022-07-25T13:19:56.227Z,27.00
2022-07-25T13:22:24.340Z,27.13
2022-07-25T13:24:52.437Z,27.12
2022-07-25T13:27:21.479Z,27.06
2022-07-25T13:29:54.115Z,27.14
2022-07-25T13:32:22.785Z,27.12
2022-07-25T13:34:50.377Z,27.20
2022-07-25T13:37:17.707Z,27.19
2022-07-25T13:39:45.312Z,27.23
2022-07-25T13:42:12.808Z,27.04
2022-07-25T13:44:40.073Z,27.05
2022-07-25T13:47:07.588Z,27.26
2022-07-25T13:49:36.832Z,27.41
2022-07-25T13:52:04.769Z,27.18
2022-07-25T13:54:32.540Z,27.32
2022-07-25T13:56:59.740Z,27.33
2022-07-25T13:59:27.039Z,27.44
2022-07-25T14:01:54.406Z,27.35
2022-07-25T14:04:21.677Z,27.38
2022-07-25T14:06:52.158Z,27.32
2022-07-25T14:09:21.103Z,27.36
2022-07-25T14:11:48.980Z,27.42
2022-07-25T14:14:16.555Z,27.45
2022-07-25T14:16:44.111Z,27.42
2022-07-25T14:19:11.418Z,27.41
2022-07-25T14:21:38.854Z,27.39
2022-07-25T14:24:06.730Z,27.41
2022-07-25T14:26:35.229Z,27.56
2022-07-25T14:29:02.638Z,27.57
2022-07-25T14:31:30.443Z,27.72
2022-07-25T14:33:58.101Z,27.76
2022-07-25T14:36:25.470Z,27.78
2022-07-25T14:38:53.396Z,27.72
2022-07-25T14:41:20.577Z,27.73
2022-07-25T14:43:48.359Z,27.54
2022-07-25T14:46:15.931Z,27.67
2022-07-25T14:48:43.294Z,27.80
2022-07-25T14:51:11.014Z,27.77
2022-07-25T14:53:38.486Z,27.77
2022-07-25T14:56:06.453Z,27.73
2022-07-25T14:58:34.236Z,27.85
2022-07-25T15:01:02.656Z,27.95
2022-07-25T15:03:30.059Z,27.97
2022-07-25T15:05:57.512Z,27.90
2022-07-25T15:08:24.927Z,27.96
2022-07-25T15:10:52.169Z,28.08
2022-07-25T15:13:34.691Z,28.07
2022-07-25T15:16:03.082Z,27.99
2022-07-25T15:18:30.832Z,27.91
2022-07-25T15:20:58.285Z,27.95
2022-07-25T15:23:29.700Z,28.00
2022-07-25T15:26:03.301Z,27.95
2022-07-25T15:28:33.712Z,28.01
2022-07-25T15:31:01.499Z,27.95
2022-07-25T15:33:28.947Z,27.88
2022-07-25T15:35:56.455Z,27.94
2022-07-25T15:38:23.830Z,27.90
2022-07-25T15:40:51.137Z,28.05
2022-07-25T15:43:18.629Z,28.05
2022-07-25T15:45:46.262Z,28.04
2022-07-25T15:48:14.881Z,27.84
2022-07-25T15:50:44.866Z,27.69
2022-07-25T15:53:12.414Z,27.73
2022-07-25T15:55:40.912Z,27.71
2022-07-25T15:58:09.544Z,27.77
2022-07-25T16:00:37.552Z,27.77
2022-07-25T16:03:05.026Z,27.76
2022-07-25T16:05:32.463Z,27.58
2022-07-25T16:08:03.003Z,27.41
2022-07-25T16:10:31.872Z,27.39
2022-07-25T16:13:00.009Z,27.50
2022-07-25T16:15:28.073Z,27.62
2022-07-25T16:18:01.676Z,27.62
2022-07-25T16:20:33.885Z,27.64
2022-07-25T16:23:01.654Z,27.67
2022-07-25T16:25:29.481Z,27.70
2022-07-25T16:27:58.426Z,27.61
2022-07-25T16:30:26.189Z,27.60
2022-07-25T16:32:53.692Z,27.63
2022-07-25T16:35:21.620Z,27.58
2022-07-25T16:37:48.769Z,27.50
2022-07-25T16:40:16.252Z,27.43
2022-07-25T16:42:43.784Z,27.46
2022-07-25T16:45:11.399Z,27.36
2022-07-25T16:47:40.389Z,27.34
2022-07-25T16:50:08.488Z,27.41
2022-07-25T16:52:35.728Z,27.30
2022-07-25T16:55:02.985Z,27.34
2022-07-25T16:57:31.211Z,27.30
2022-07-25T16:59:58.632Z,27.21
2022-07-25T17:02:29.453Z,27.17
2022-07-25T17:04:57.897Z,27.07
2022-07-25T17:07:25.689Z,26.91
2022-07-25T17:09:53.454Z,26.97
2022-07-25T17:12:21.092Z,26.92
2022-07-25T17:14:48.697Z,26.90
2022-07-25T17:17:16.181Z,26.87
2022-07-25T17:19:44.119Z,26.86
2022-07-25T17:22:11.559Z,26.84
2022-07-25T17:24:39.225Z,26.77
2022-07-25T17:27:07.846Z,26.79
2022-07-25T17:29:35.218Z,26.72
2022-07-25T17:32:02.870Z,26.66
2022-07-25T17:34:30.428Z,26.60
2022-07-25T17:37:02.652Z,26.59
2022-07-25T17:39:33.632Z,26.55
2022-07-25T17:42:02.012Z,26.45
2022-07-25T17:44:29.221Z,26.40
2022-07-25T17:46:56.598Z,26.33
2022-07-25T17:49:24.150Z,26.23
2022-07-25T17:51:51.241Z,26.07
2022-07-25T17:54:18.472Z,26.03
2022-07-25T17:56:46.299Z,25.83
2022-07-25T17:59:13.799Z,25.80
2022-07-25T18:01:41.332Z,25.71
2022-07-25T18:04:09.555Z,25.60
2022-07-25T18:06:37.104Z,25.48
2022-07-25T18:09:04.786Z,25.41
2022-07-25T18:11:32.334Z,25.31
2022-07-25T18:13:59.612Z,25.26
2022-07-25T18:16:27.104Z,25.07
2022-07-25T18:18:55.923Z,24.99
2022-07-25T18:21:24.399Z,24.82
2022-07-25T18:23:52.325Z,24.65
2022-07-25T18:26:21.775Z,24.49
2022-07-25T18:28:48.966Z,24.33
2022-07-25T18:31:16.208Z,24.11
2022-07-25T18:33:43.716Z,23.85
2022-07-25T18:36:11.032Z,23.69
2022-07-25T18:38:38.292Z,23.34
2022-07-25T18:41:28.182Z,23.12
2022-07-25T18:43:55.424Z,22.91
2022-07-25T18:46:22.930Z,22.73
2022-07-25T18:48:50.726Z,22.74
2022-07-25T18:51:18.059Z,22.70
2022-07-25T18:53:48.194Z,22.56
2022-07-25T18:56:16.598Z,22.37
2022-07-25T18:58:44.153Z,22.07
2022-07-25T19:01:12.115Z,21.93
2022-07-25T19:03:40.633Z,21.74
2022-07-25T19:06:09.165Z,21.56
2022-07-25T19:08:36.708Z,21.45
2022-07-25T19:11:04.286Z,21.37
2022-07-25T19:13:48.932Z,21.26
2022-07-25T19:16:18.595Z,21.13
2022-07-25T19:18:46.149Z,20.98
2022-07-25T19:21:13.981Z,20.84
2022-07-25T19:23:41.600Z,20.73
2022-07-25T19:26:08.804Z,20.62
2022-07-25T19:28:36.384Z,20.47
2022-07-25T19:31:04.018Z,20.36
2022-07-25T19:33:35.812Z,20.35
2022-07-25T19:36:04.452Z,20.38
2022-07-25T19:38:32.428Z,20.29
2022-07-25T19:41:00.073Z,20.42
2022-07-25T19:43:27.359Z,20.42
2022-07-25T19:45:54.725Z,20.47
2022-07-25T19:48:23.984Z,20.55
2022-07-25T19:50:52.721Z,20.59
2022-07-25T19:53:22.139Z,20.64
2022-07-25T19:55:53.043Z,20.66
2022-07-25T19:58:20.279Z,20.65
2022-07-25T20:00:47.678Z,20.63
2022-07-25T20:03:15.695Z,20.66
2022-07-25T20:05:43.348Z,20.67
2022-07-25T20:08:12.338Z,20.63
2022-07-25T20:10:42.741Z,20.52
2022-07-25T20:13:09.998Z,20.64
2022-07-25T20:15:37.399Z,20.65
2022-07-25T20:18:04.896Z,20.70
2022-07-25T20:20:32.056Z,20.71
2022-07-25T20:22:59.541Z,20.69
2022-07-25T20:25:26.641Z,20.71
2022-07-25T20:27:53.994Z,20.70
2022-07-25T20:30:21.956Z,20.65
2022-07-25T20:32:49.515Z,20.63
2022-07-25T20:35:16.699Z,20.58
2022-07-25T20:37:44.160Z,20.52
2022-07-25T20:40:12.143Z,20.51
2022-07-25T20:42:39.534Z,20.58
2022-07-25T20:45:07.629Z,20.52
2022-07-25T20:47:34.830Z,20.56
2022-07-25T20:50:02.304Z,20.60
2022-07-25T20:52:30.435Z,20.67
2022-07-25T20:54:57.680Z,20.76
2022-07-25T20:57:24.939Z,20.68
2022-07-25T20:59:52.373Z,20.73
2022-07-25T21:02:19.616Z,20.81
2022-07-25T21:04:48.521Z,20.86
2022-07-25T21:07:16.851Z,20.93
2022-07-25T21:09:44.554Z,20.95
2022-07-25T21:12:11.906Z,20.94
2022-07-25T21:14:39.378Z,20.93
2022-07-25T21:17:06.689Z,20.91
2022-07-25T21:19:33.952Z,20.85
2022-07-25T21:22:02.100Z,20.83
2022-07-25T21:24:29.298Z,20.80
2022-07-25T21:26:56.423Z,20.78
2022-07-25T21:29:23.921Z,20.74
2022-07-25T21:31:51.056Z,20.63
2022-07-25T21:34:18.464Z,20.64
2022-07-25T21:36:48.108Z,20.58
2022-07-25T21:39:16.309Z,20.48
2022-07-25T21:41:44.908Z,20.43
2022-07-25T21:44:14.296Z,20.35
2022-07-25T21:46:42.278Z,20.27
2022-07-25T21:49:41.437Z,20.16
2022-07-25T21:52:13.878Z,20.01
2022-07-25T21:54:42.577Z,19.95
2022-07-25T21:57:13.754Z,19.89
2022-07-25T21:59:42.977Z,19.94
2022-07-25T22:05:15.088Z,20.10
2022-07-25T22:07:43.715Z,20.09
2022-07-25T22:10:13.196Z,20.14
2022-07-25T22:12:41.656Z,20.15
2022-07-25T22:15:11.947Z,20.20
2022-07-25T22:17:48.300Z,20.24
2022-07-25T22:20:19.213Z,20.33
2022-07-25T22:22:48.021Z,20.31
2022-07-25T22:25:16.353Z,20.37
2022-07-25T22:27:44.387Z,20.33
2022-07-25T22:30:18.817Z,20.31
2022-07-25T22:32:48.488Z,20.31
2022-07-25T22:35:16.104Z,20.34
2022-07-25T22:37:44.649Z,20.27
2022-07-25T22:40:13.108Z,20.30
2022-07-25T22:42:40.651Z,20.30
2022-07-25T22:45:08.953Z,20.31
2022-07-25T22:47:36.963Z,20.34
2022-07-25T22:50:05.487Z,20.42
2022-07-25T22:52:35.500Z,20.38
2022-07-25T22:55:03.453Z,20.33
2022-07-25T22:57:37.033Z,20.32
2022-07-25T23:00:11.342Z,20.33
2022-07-25T23:02:39.549Z,20.29
2022-07-25T23:05:07.963Z,20.33
2022-07-25T23:07:35.708Z,20.26
2022-07-25T23:10:03.127Z,20.26
2022-07-25T23:12:30.834Z,20.28
2022-07-25T23:14:58.066Z,20.24
2022-07-25T23:17:25.683Z,20.21
2022-07-25T23:19:54.776Z,20.14
2022-07-25T23:22:24.205Z,20.13
2022-07-25T23:24:51.579Z,20.16
2022-07-25T23:27:19.219Z,20.11
2022-07-25T23:29:46.584Z,20.15
2022-07-25T23:32:13.782Z,20.13
2022-07-25T23:34:41.362Z,20.10
2022-07-25T23:37:08.662Z,20.09
2022-07-25T23:39:35.881Z,20.08
2022-07-25T23:42:04.150Z,20.08
2022-07-25T23:47:39.054Z,20.17
2022-07-25T23:50:08.146Z,20.19
2022-07-25T23:52:35.453Z,20.21
2022-07-25T23:55:03.241Z,20.14
2022-07-25T23:57:30.689Z,20.16
2022-07-25T23:59:58.046Z,20.13
